createdAt,value
2022-08-01T00:02:48.139Z,18.40
2022-08-01T00:08:49.930Z,18.30
2022-08-01T00:14:51.740Z,18.30
2022-08-01T00:20:56.610Z,18.30
2022-08-01T00:26:58.297Z,18.20
2022-08-01T00:33:03.980Z,18.20
2022-08-01T00:39:05.853Z,18.30
2022-08-01T00:45:08.151Z,18.30
2022-08-01T00:51:10.353Z,18.20
2022-08-01T00:57:12.586Z,18.20
2022-08-01T01:03:16.881Z,18.30
2022-08-01T01:09:37.282Z,18.30
2022-08-01T01:15:48.381Z,18.20
2022-08-01T01:22:15.030Z,18.30
2022-08-01T01:28:36.980Z,18.20
2022-08-01T01:34:43.795Z,18.20
2022-08-01T01:40:47.716Z,18.20
2022-08-01T01:46:51.564Z,18.10
2022-08-01T01:52:55.804Z,18.10
2022-08-01T01:59:02.929Z,18.00
2022-08-01T02:05:06.969Z,18.00
2022-08-01T02:11:20.775Z,17.90
2022-08-01T02:17:24.927Z,17.90
2022-08-01T02:23:31.762Z,18.00
2022-08-01T02:29:48.306Z,17.90
2022-08-01T02:36:28.978Z,17.80
2022-08-01T02:42:17.888Z,17.90
2022-08-01T02:48:21.645Z,18.00
2022-08-01T02:54:24.249Z,18.00
2022-08-01T03:00:26.881Z,17.90
2022-08-01T03:06:30.208Z,17.80
2022-08-01T03:12:34.880Z,17.90
2022-08-01T03:18:37.887Z,18.00
2022-08-01T03:24:42.360Z,18.10
2022-08-01T03:30:45.987Z,18.00
2022-08-01T03:36:52.066Z,17.90
2022-08-01T03:43:00.913Z,17.90
2022-08-01T03:49:11.954Z,17.90
2022-08-01T03:55:16.222Z,18.00
2022-08-01T04:01:18.888Z,17.90
2022-08-01T04:07:36.605Z,18.00
2022-08-01T04:13:39.450Z,17.90
2022-08-01T04:19:41.985Z,17.80
2022-08-01T04:25:45.587Z,17.90
2022-08-01T04:31:49.987Z,17.80
2022-08-01T04:37:53.184Z,17.80
2022-08-01T04:43:56.030Z,17.70
2022-08-01T04:49:57.991Z,17.70
2022-08-01T04:55:59.825Z,17.80
2022-08-01T05:02:01.600Z,17.80
2022-08-01T05:08:03.440Z,17.80
2022-08-01T05:14:05.236Z,17.90
2022-08-01T05:20:07.506Z,17.80
2022-08-01T05:26:09.505Z,17.80
2022-08-01T05:32:11.239Z,17.90
2022-08-01T05:38:14.887Z,18.00
2022-08-01T05:44:16.935Z,18.00
2022-08-01T05:50:18.699Z,18.00
2022-08-01T05:56:21.091Z,18.00
2022-08-01T06:02:22.975Z,17.90
2022-08-01T06:08:24.750Z,18.20
2022-08-01T06:14:26.668Z,18.00
2022-08-01T06:20:28.457Z,18.20
2022-08-01T06:26:30.186Z,18.20
2022-08-01T06:32:32.131Z,18.20
2022-08-01T06:38:33.885Z,18.20
2022-08-01T06:44:35.693Z,18.00
2022-08-01T06:50:37.912Z,18.20
2022-08-01T06:56:40.756Z,18.20
2022-08-01T07:02:42.622Z,18.30
2022-08-01T07:08:44.400Z,18.40
2022-08-01T07:14:46.283Z,18.40
2022-08-01T07:20:52.635Z,18.30
2022-08-01T07:26:56.026Z,18.50
2022-08-01T07:32:58.211Z,18.70
2022-08-01T07:39:00.048Z,18.70
2022-08-01T07:45:02.817Z,18.80
2022-08-01T07:51:04.571Z,18.70
2022-08-01T07:57:06.998Z,18.70
2022-08-01T08:03:09.044Z,18.60
2022-08-01T08:09:10.853Z,18.60
2022-08-01T08:15:12.805Z,18.60
2022-08-01T08:21:14.663Z,18.60
2022-08-01T08:27:17.612Z,18.60
2022-08-01T08:33:21.031Z,18.60
2022-08-01T08:39:23.677Z,18.60
2022-08-01T08:45:50.320Z,18.60
2022-08-01T08:51:51.129Z,18.50
2022-08-01T08:57:53.987Z,18.60
2022-08-01T09:03:55.730Z,18.60
2022-08-01T09:09:57.436Z,18.80
2022-08-01T09:16:01.990Z,18.90
2022-08-01T09:22:06.292Z,19.30
2022-08-01T09:28:08.297Z,19.20
2022-08-01T09:34:11.103Z,19.30
2022-08-01T09:40:12.858Z,19.40
2022-08-01T09:46:14.569Z,19.60
2022-08-01T09:52:20.068Z,19.40
2022-08-01T09:58:21.828Z,19.40
2022-08-01T10:04:25.345Z,19.40
2022-08-01T10:10:31.423Z,19.60
2022-08-01T10:16:36.753Z,19.60
2022-08-01T10:22:41.456Z,19.60
2022-08-01T10:28:45.848Z,19.80
2022-08-01T10:34:49.676Z,20.00
2022-08-01T10:40:52.657Z,20.20
2022-08-01T10:47:00.510Z,20.20
2022-08-01T10:53:16.247Z,20.30
2022-08-01T10:59:29.107Z,20.50
2022-08-01T11:05:52.237Z,21.10
2022-08-01T11:12:13.182Z,21.00
2022-08-01T11:18:30.986Z,20.80
2022-08-01T11:24:50.944Z,20.40
2022-08-01T11:31:18.722Z,20.40
2022-08-01T11:37:30.263Z,20.50
2022-08-01T11:43:32.669Z,20.80
2022-08-01T11:49:49.732Z,20.70
2022-08-01T11:55:53.917Z,20.70
2022-08-01T12:01:55.856Z,20.60
2022-08-01T12:07:58.553Z,20.70
2022-08-01T12:14:00.302Z,20.90
2022-08-01T12:20:04.936Z,21.00
2022-08-01T12:26:06.654Z,21.10
2022-08-01T12:32:35.753Z,20.90
2022-08-01T12:38:37.813Z,20.60
2022-08-01T12:44:41.619Z,20.60
2022-08-01T12:50:48.701Z,20.60
2022-08-01T12:56:50.691Z,20.60
2022-08-01T13:03:06.381Z,20.40
2022-08-01T13:09:10.156Z,20.30
2022-08-01T13:15:18.374Z,20.20
2022-08-01T13:21:21.668Z,20.20
2022-08-01T13:27:25.067Z,20.30
2022-08-01T13:33:29.101Z,20.50
2022-08-01T13:39:48.345Z,20.40
2022-08-01T13:45:50.076Z,20.40
2022-08-01T13:51:52.329Z,20.30
2022-08-01T13:57:54.125Z,20.30
2022-08-01T14:03:55.893Z,20.40
2022-08-01T14:10:18.843Z,20.40
2022-08-01T14:16:19.535Z,20.40
2022-08-01T14:22:21.466Z,20.30
2022-08-01T14:28:24.651Z,20.20
2022-08-01T14:34:26.414Z,20.10
2022-08-01T14:40:28.272Z,20.20
2022-08-01T14:46:31.495Z,20.30
2022-08-01T14:52:36.587Z,20.30
2022-08-01T14:58:38.308Z,20.30
2022-08-01T15:04:40.307Z,20.30
2022-08-01T15:10:42.200Z,20.30
2022-08-01T15:16:43.969Z,20.40
2022-08-01T15:22:45.824Z,20.50
2022-08-01T15:28:47.649Z,20.60
2022-08-01T15:34:49.561Z,20.80
2022-08-01T15:40:51.410Z,20.90
2022-08-01T15:46:53.121Z,20.90
2022-08-01T15:52:54.932Z,21.00
2022-08-01T15:58:57.674Z,21.00
2022-08-01T16:04:59.450Z,20.90
2022-08-01T16:11:01.209Z,20.90
2022-08-01T16:17:03.105Z,20.80
2022-08-01T16:23:04.950Z,20.90
2022-08-01T16:29:06.661Z,21.30
2022-08-01T16:35:09.765Z,21.20
2022-08-01T16:41:19.462Z,20.90
2022-08-01T16:47:22.261Z,20.90
2022-08-01T16:53:24.095Z,21.40
2022-08-01T16:59:26.444Z,21.70
2022-08-01T17:05:28.685Z,21.60
2022-08-01T17:11:31.138Z,21.20
2022-08-01T17:17:32.892Z,21.20
2022-08-01T17:23:35.803Z,21.50
2022-08-01T17:29:43.967Z,21.70
2022-08-01T17:35:46.400Z,21.80
2022-08-01T17:41:48.165Z,21.80
2022-08-01T17:47:51.137Z,22.00
2022-08-01T17:53:57.179Z,21.80
2022-08-01T18:00:00.352Z,21.50
2022-08-01T18:06:02.773Z,21.80
2022-08-01T18:12:05.194Z,22.00
2022-08-01T18:18:14.065Z,21.90
2022-08-01T18:24:22.061Z,21.50
2022-08-01T18:30:23.835Z,21.10
2022-08-01T18:36:33.114Z,20.80
2022-08-01T18:42:36.037Z,20.50
2022-08-01T18:48:37.860Z,20.30
2022-08-01T18:54:39.717Z,20.20
2022-08-01T19:00:42.284Z,20.00
2022-08-01T19:06:44.065Z,19.80
2022-08-01T19:12:49.812Z,19.70
2022-08-01T19:18:51.708Z,19.50
2022-08-01T19:24:53.602Z,19.50
2022-08-01T19:30:58.193Z,19.40
2022-08-01T19:36:59.937Z,19.40
2022-08-01T19:43:03.069Z,19.40
2022-08-01T19:49:04.918Z,19.30
2022-08-01T19:55:07.919Z,19.30
2022-08-01T20:01:16.036Z,19.20
2022-08-01T20:07:17.855Z,19.10
2022-08-01T20:13:20.630Z,19.10
2022-08-01T20:19:26.622Z,19.00
2022-08-01T20:25:39.629Z,18.90
2022-08-01T20:31:44.863Z,18.80
2022-08-01T20:38:05.504Z,18.80
2022-08-01T20:44:09.824Z,19.00
2022-08-01T20:50:53.437Z,19.00
2022-08-01T20:57:11.719Z,18.90
2022-08-01T21:03:22.447Z,18.80
2022-08-01T21:09:28.203Z,18.60
2022-08-01T21:16:07.306Z,18.30
2022-08-01T21:22:45.147Z,18.10
2022-08-01T21:28:53.962Z,17.90
2022-08-01T21:34:57.007Z,17.80
2022-08-01T21:41:03.839Z,17.80
2022-08-01T21:47:06.630Z,17.80
2022-08-01T21:53:31.935Z,17.80
2022-08-01T21:59:40.185Z,17.80
2022-08-01T22:05:51.165Z,17.70
2022-08-01T22:12:01.309Z,17.40
2022-08-01T22:18:05.036Z,17.30
2022-08-01T22:24:07.305Z,17.30
2022-08-01T22:30:12.799Z,17.30
2022-08-01T22:36:14.629Z,17.30
2022-08-01T22:42:17.446Z,17.30
2022-08-01T22:48:23.988Z,17.20
2022-08-01T22:54:57.506Z,17.20
2022-08-01T23:01:02.714Z,17.10
2022-08-01T23:07:06.106Z,17.10
2022-08-01T23:13:08.088Z,17.00
2022-08-01T23:19:10.182Z,16.90
2022-08-01T23:25:15.340Z,16.90
2022-08-01T23:31:17.211Z,16.80
2022-08-01T23:37:19.162Z,16.60
2022-08-01T23:43:21.039Z,16.60
2022-08-01T23:49:22.888Z,16.60
2022-08-01T23:55:36.981Z,16.50
